Flight Track Log - Related Links

Times and Time Zones

All times are in EDT time to prevent confusion due to time zone crossing. See the N30NY flight status page for this flight to view local times or setup timezone preferences in your user account.

Time Position Orientation Groundspeed Altitude Reporting Facility
EDT Latitude Longitude Course Direction KTS MPH feet Rate Location/Type
Sat 04:46:34 PM 41.0167 -72.4000 270° West 159 183 1,900  Level New York TRACON
Sat 04:47:34 PM 41.0167 -72.4500 270° West 152 175 1,900  Level New York TRACON
Sat 04:48:34 PM 41.0167 -72.5167 270° West 154 177 1,900  Level New York TRACON
Sat 04:49:34 PM 41.0167 -72.5667 270° West 155 178 1,900  Level New York TRACON
Sat 04:50:34 PM 41.0000 -72.6167 246° West 154 177 1,900  Level New York TRACON
Sat 04:51:34 PM 41.0000 -72.6833 270° West 155 178 1,900  Level New York TRACON
Sat 04:52:34 PM 41.0000 -72.7333 270° West 151 174 1,900  Level New York TRACON
Sat 04:53:34 PM 41.0000 -72.7833 270° West 154 177 1,900  Level New York TRACON
Sat 04:54:34 PM 41.0000 -72.8500 270° West 154 177 1,900  Level New York TRACON
Sat 04:55:34 PM 41.0000 -72.9000 270° West 156 180 1,900  Level New York TRACON
Sat 04:56:34 PM 40.9833 -72.9667 252° West 157 181 1,900  Level New York TRACON
Sat 04:57:34 PM 40.9833 -73.0167 270° West 157 181 1,900  Level New York TRACON
Sat 04:58:34 PM 40.9833 -73.0667 270° West 155 178 1,900  Level New York TRACON
Sat 04:59:34 PM 40.9833 -73.1333 270° West 154 177 1,900  Level New York TRACON
Sat 05:00:34 PM 40.9833 -73.1833 270° West 155 178 1,900  Level New York TRACON
Sat 05:01:34 PM 40.9667 -73.2500 252° West 154 177 1,900  Level New York TRACON
Sat 05:02:34 PM 40.9667 -73.3000 270° West 153 176 1,900  Level New York TRACON
Sat 05:03:40 PM 40.9667 -73.3667 270° West 154 177 1,900  Level New York TRACON
Sat 05:04:40 PM 40.9667 -73.4167 270° West 153 176 1,900  Level New York TRACON
Sat 05:05:40 PM 40.9500 -73.4667 246° West 156 180 1,900  Level New York TRACON
Sat 05:06:40 PM 40.9500 -73.5167 270° West 152 175 1,900  Level New York TRACON
Sat 05:07:40 PM 40.9167 -73.5667 229° Southwest 149 171 1,900  Level New York TRACON
Sat 05:08:40 PM 40.9000 -73.6167 246° West 148 170 1,900  Level New York TRACON
Sat 05:09:40 PM 40.8667 -73.6500 217° Southwest 148 170 1,900  Level New York TRACON
Sat 05:10:40 PM 40.8500 -73.7000 246° West 148 170 1,900  Level New York TRACON
Sat 05:11:46 PM 40.8167 -73.7500 229° Southwest 149 171 1,900  Level New York TRACON
Sat 05:12:46 PM 40.8000 -73.8000 246° West 148 170 1,900  Level New York TRACON
Sat 05:13:46 PM 40.7833 -73.8500 246° West 150 173 1,900 -150 Level New York TRACON
Sat 05:14:46 PM 40.7667 -73.9000 246° West 147 169 1,600 -200 Descending New York TRACON
Sat 05:15:46 PM 40.7833 -73.9500 294° West 145 167 1,500 -100 Descending New York TRACON
Sat 05:17:00 PM 40.7500 -74.0000 258° West  Level FlightAware Approximate
Sat 05:24:00 PM 40.7546 -74.0071 258° West  Level Estimated
Sat 05:25:00 PM 40.7500 -74.0000 258° West  Level FlightAware Approximate
Sat 05:26:00 PM 40.7546 -74.0071 258° West  Level Estimated
Sat 05:27:00 PM 40.7500 -74.0000 258° West  Level FlightAware Approximate
Sat 05:28:00 PM 40.7546 -74.0071 258° West  Level Estimated
Sat 05:29:00 PM 40.7500 -74.0000 258° West  Level FlightAware Approximate
Sat 05:30:00 PM 40.7546 -74.0071 258° West  Level Estimated
Sat 05:31:00 PM 40.7500 -74.0000 258° West  Level FlightAware Approximate
Sat 05:32:00 PM 40.7546 -74.0071 258° West  Level Estimated
Sat 05:33:00 PM 40.7500 -74.0000 258° West  Level FlightAware Approximate

Login

Don't have an account? Register now (free) for customized features, flight alerts, and more!